Time;durP1;ratioP1;P1;durP2;ratioP2;P2;SDS_P1;SDS_P2;PMS_P1;PMS_P2;Temp;Humidity;BMP_temperature;BMP_pressure;BME280_temperature;BME280_humidity;BME280_pressure;Samples;Min_cycle;Max_cycle;Signal;HPM_P1;HPM_P2
2024/02/06 00:01:47;;;;;;;;;;;;;;;15.31;55.65;98064.49;67982;1274;1016233;-69
2024/02/06 00:04:49;;;;;;;24.00;6.30;;;;;;;15.22;55.68;98075.20;67997;1274;1016060;-68
2024/02/06 00:07:52;;;;;;;25.00;5.70;;;;;;;15.06;55.96;98086.34;67999;1274;1016598;-69
2024/02/06 00:10:54;;;;;;;22.70;5.40;;;;;;;15.13;55.99;98078.51;67962;1274;1016363;-68
2024/02/06 00:13:57;;;;;;;23.50;5.30;;;;;;;15.21;55.84;98080.41;67971;1275;1016195;-69
2024/02/06 00:16:59;;;;;;;26.40;5.90;;;;;;;14.97;56.46;98084.56;67943;1274;1016909;-69
2024/02/06 00:20:02;;;;;;;23.10;5.40;;;;;;;14.98;56.87;98076.38;68013;1275;1016673;-68
2024/02/06 00:23:04;;;;;;;;;;;;;;;15.00;56.89;98073.15;68004;1275;1018653;-68
2024/02/06 00:26:07;;;;;;;24.60;5.40;;;;;;;14.97;56.12;98079.44;67969;1275;1016452;-69
2024/02/06 00:29:09;;;;;;;22.90;5.30;;;;;;;15.30;55.17;98068.64;67954;1275;1016319;-69
2024/02/06 00:32:12;;;;;;;18.50;4.10;;;;;;;15.19;55.04;98072.85;67957;1275;1017212;-68
2024/02/06 00:35:14;;;;;;;20.70;5.00;;;;;;;15.23;55.21;98063.31;68015;1274;1016499;-68
2024/02/06 00:38:17;;;;;;;19.60;4.60;;;;;;;15.20;55.17;98063.96;67955;1274;1016434;-67
2024/02/06 00:41:19;;;;;;;18.70;4.50;;;;;;;15.11;54.77;98072.53;67953;1275;1016362;-66
2024/02/06 00:44:22;;;;;;;25.50;5.00;;;;;;;15.18;54.97;98072.77;68008;1275;1016372;-68
2024/02/06 00:47:24;;;;;;;23.70;4.70;;;;;;;15.20;54.92;98059.51;68016;1275;1016495;-66
2024/02/06 00:50:27;;;;;;;22.80;4.90;;;;;;;15.13;55.24;98054.60;67937;1275;1015813;-69
2024/02/06 00:53:29;;;;;;;21.90;5.50;;;;;;;15.17;55.04;98050.52;67944;1275;1016159;-69
2024/02/06 00:56:32;;;;;;;25.70;5.30;;;;;;;15.13;55.35;98054.88;68002;1275;1016478;-69
2024/02/06 00:59:34;;;;;;;20.00;4.80;;;;;;;15.11;54.90;98068.80;68010;1275;1016471;-69
2024/02/06 01:02:37;;;;;;;15.20;3.80;;;;;;;15.04;54.77;98064.89;67956;1275;1016514;-69
2024/02/06 01:05:39;;;;;;;22.40;6.00;;;;;;;14.95;54.88;98053.04;68001;1275;1016121;-69
2024/02/06 01:08:42;;;;;;;31.30;5.20;;;;;;;14.89;54.99;98056.73;67979;1275;1016175;-69
2024/02/06 01:11:44;;;;;;;20.20;4.30;;;;;;;14.82;54.89;98053.81;68018;1275;1016441;-68
2024/02/06 01:14:47;;;;;;;24.40;5.20;;;;;;;14.91;54.96;98048.81;67961;1275;1016668;-68
2024/02/06 01:17:49;;;;;;;20.80;4.40;;;;;;;14.99;54.23;98041.88;67955;1275;1016062;-69
2024/02/06 01:20:52;;;;;;;24.00;5.10;;;;;;;14.99;53.80;98053.34;67970;1275;1016305;-68
2024/02/06 01:23:54;;;;;;;24.90;4.70;;;;;;;14.93;53.88;98059.70;67997;1275;1016445;-68
2024/02/06 01:26:57;;;;;;;22.70;4.80;;;;;;;15.03;54.01;98045.48;67976;1275;1016175;-69
2024/02/06 01:30:00;;;;;;;22.50;5.10;;;;;;;15.04;53.70;98046.72;67976;1275;1016495;-68
2024/02/06 01:33:03;;;;;;;24.00;5.80;;;;;;;14.98;53.66;98041.17;67954;1275;1016228;-67
2024/02/06 01:36:05;;;;;;;24.60;5.80;;;;;;;14.94;54.18;98045.00;67968;1275;1016380;-69
2024/02/06 01:39:08;;;;;;;22.30;6.20;;;;;;;14.84;53.20;98052.13;67983;1275;1016613;-69
2024/02/06 01:42:10;;;;;;;29.40;5.40;;;;;;;14.97;53.12;98048.29;68004;1275;1016410;-69
2024/02/06 01:45:13;;;;;;;18.80;4.60;;;;;;;15.04;52.78;98040.07;67951;1275;1016176;-69
2024/02/06 01:48:16;;;;;;;23.50;5.00;;;;;;;14.95;52.91;98046.17;67955;1275;1016381;-68
2024/02/06 01:51:19;;;;;;;19.10;5.00;;;;;;;14.99;53.07;98036.80;67987;1275;1016440;-68
2024/02/06 01:54:22;;;;;;;;;;;;;;;15.10;53.25;98029.27;67941;1275;1016497;-69
2024/02/06 01:57:24;;;;;;;19.30;4.70;;;;;;;14.94;53.13;98036.35;68020;1275;1016275;-69
2024/02/06 02:00:26;;;;;;;23.70;5.00;;;;;;;14.98;53.83;98028.08;68007;1275;1016378;-68
2024/02/06 02:03:29;;;;;;;18.00;4.50;;;;;;;14.92;54.08;98033.42;67978;1275;1016187;-68
2024/02/06 02:06:32;;;;;;;20.80;4.70;;;;;;;14.87;54.31;98035.77;68012;1275;1016422;-68
2024/02/06 02:09:34;;;;;;;23.00;5.20;;;;;;;14.88;54.42;98044.66;68001;1275;1016420;-66
2024/02/06 02:12:37;;;;;;;21.70;4.50;;;;;;;14.89;54.51;98040.00;67946;1275;1016276;-69
2024/02/06 02:15:39;;;;;;;25.60;5.30;;;;;;;14.67;54.65;98041.60;67933;1275;1016459;-69
2024/02/06 02:18:42;;;;;;;19.00;4.70;;;;;;;14.72;54.29;98033.46;67991;1275;1016466;-69
2024/02/06 02:21:45;;;;;;;20.50;4.90;;;;;;;14.71;53.78;98040.92;67955;1254;1016485;-67
2024/02/06 02:24:48;;;;;;;24.70;5.50;;;;;;;14.71;53.54;98045.50;67952;1275;1016362;-69
2024/02/06 02:27:50;;;;;;;21.20;4.50;;;;;;;14.77;53.49;98042.13;67987;1275;1016404;-68
2024/02/06 02:30:52;;;;;;;25.70;4.70;;;;;;;14.82;53.61;98034.85;68004;1275;1016497;-69
2024/02/06 02:33:55;;;;;;;22.00;4.80;;;;;;;14.71;53.34;98034.05;68008;1275;1016514;-69
2024/02/06 02:36:58;;;;;;;17.40;4.70;;;;;;;14.67;53.54;98037.27;67962;1275;1016820;-69
2024/02/06 02:40:01;;;;;;;20.80;4.80;;;;;;;14.73;53.82;98037.73;68043;1275;1017255;-68
2024/02/06 02:43:04;;;;;;;22.30;4.80;;;;;;;14.67;53.65;98040.77;67970;1275;1016532;-68
2024/02/06 02:46:06;;;;;;;23.00;5.00;;;;;;;14.60;53.60;98035.61;68001;1275;1016464;-67
2024/02/06 02:49:09;;;;;;;19.50;4.80;;;;;;;14.55;53.68;98044.83;68016;1275;1016409;-68
2024/02/06 02:52:11;;;;;;;17.60;4.80;;;;;;;14.57;53.56;98043.96;67995;1274;1016337;-68
2024/02/06 02:55:14;;;;;;;22.20;5.00;;;;;;;14.58;53.05;98049.61;67979;1275;1018628;-68
2024/02/06 02:58:16;;;;;;;18.10;5.00;;;;;;;14.62;53.23;98035.77;67984;1275;1016365;-69
2024/02/06 03:01:19;;;;;;;19.70;4.70;;;;;;;14.67;53.11;98035.70;68053;1275;1016137;-67
2024/02/06 03:04:21;;;;;;;24.70;4.50;;;;;;;14.62;53.00;98047.86;68013;1275;1018845;-68
2024/02/06 03:07:24;;;;;;;21.10;4.90;;;;;;;14.76;53.14;98033.61;67969;1275;1017735;-68
2024/02/06 03:10:27;;;;;;;19.70;4.40;;;;;;;14.81;53.00;98026.81;67983;1275;1016507;-69
2024/02/06 03:13:30;;;;;;;22.30;4.70;;;;;;;14.80;52.69;98032.33;67975;1275;1016371;-69
2024/02/06 03:16:34;;;;;;;20.70;5.10;;;;;;;14.65;52.87;98045.84;68039;1274;1016536;-69
2024/02/06 03:19:36;;;;;;;24.70;4.90;;;;;;;14.68;52.83;98033.84;67963;1274;1017263;-69
2024/02/06 03:22:39;;;;;;;24.20;4.70;;;;;;;14.73;52.88;98043.22;68034;1275;1016423;-69
2024/02/06 03:25:41;;;;;;;18.90;4.50;;;;;;;14.85;52.51;98040.39;68021;1275;1018076;-69
2024/02/06 03:28:44;;;;;;;19.80;5.00;;;;;;;14.83;52.59;98043.92;67988;1274;1016479;-69
2024/02/06 03:31:46;;;;;;;20.80;5.10;;;;;;;14.86;52.40;98045.67;67955;1274;1016474;-69
2024/02/06 03:34:49;;;;;;;20.80;5.10;;;;;;;14.81;52.69;98040.73;67992;1274;1020066;-67
2024/02/06 03:37:51;;;;;;;17.80;4.50;;;;;;;14.70;53.22;98050.36;68013;1274;1016537;-69
2024/02/06 03:40:54;;;;;;;23.10;5.40;;;;;;;14.72;53.45;98046.31;68031;1274;1016448;-69
2024/02/06 03:43:56;;;;;;;18.60;4.90;;;;;;;14.60;54.03;98057.02;67966;1274;1016144;-68
2024/02/06 03:46:59;;;;;;;21.20;4.40;;;;;;;14.48;54.34;98058.29;67961;1275;1016362;-69
2024/02/06 03:50:01;;;;;;;19.70;5.20;;;;;;;14.54;54.42;98049.41;68021;1275;1016723;-69
2024/02/06 03:53:04;;;;;;;22.30;5.10;;;;;;;14.55;54.30;98051.96;67959;1275;1016198;-69
2024/02/06 03:56:08;;;;;;;18.40;4.50;;;;;;;14.63;53.72;98046.71;68002;1274;1016408;-68
2024/02/06 03:59:10;;;;;;;25.50;4.70;;;;;;;14.79;53.33;98050.98;68018;1274;1016523;-69
2024/02/06 04:02:13;;;;;;;22.10;4.70;;;;;;;14.83;53.58;98041.73;68046;1275;1016330;-69
2024/02/06 04:05:15;;;;;;;26.70;5.40;;;;;;;14.75;53.53;98046.88;68035;1274;1016244;-69
2024/02/06 04:08:18;;;;;;;18.30;4.50;;;;;;;14.69;53.76;98049.56;67992;1274;1016512;-69
2024/02/06 04:11:20;;;;;;;23.10;5.20;;;;;;;14.63;53.63;98061.13;67983;1275;1016266;-69
2024/02/06 04:14:23;;;;;;;23.30;5.00;;;;;;;14.53;54.40;98058.87;68031;1274;1016456;-69
2024/02/06 04:17:25;;;;;;;21.10;4.90;;;;;;;14.70;53.66;98045.73;67995;1274;1016232;-69
2024/02/06 04:20:28;;;;;;;24.00;4.90;;;;;;;14.56;54.69;98053.98;68011;1275;1016372;-69
2024/02/06 04:23:30;;;;;;;27.80;5.80;;;;;;;14.44;54.87;98048.21;67982;1275;1016580;-69
2024/02/06 04:26:33;;;;;;;24.60;5.10;;;;;;;14.47;54.82;98042.02;68033;1274;1016546;-69
2024/02/06 04:29:35;;;;;;;24.20;5.50;;;;;;;14.58;54.68;98035.75;68031;1274;1017607;-69
2024/02/06 04:32:38;;;;;;;23.40;5.50;;;;;;;14.45;55.61;98045.52;68008;1275;1015972;-68
2024/02/06 04:35:41;;;;;;;23.30;6.00;;;;;;;14.38;56.82;98048.45;68002;1274;1017396;-69
2024/02/06 04:38:43;;;;;;;;;;;;;;;14.41;56.88;98042.85;68081;1275;1015716;-69
2024/02/06 04:41:46;;;;;;;27.10;5.30;;;;;;;14.47;56.89;98035.70;68052;1275;1015933;-69
2024/02/06 04:44:49;;;;;;;26.20;5.80;;;;;;;14.50;57.02;98033.84;68033;1274;1018078;-69
2024/02/06 04:47:52;;;;;;;20.90;5.00;;;;;;;14.27;57.89;98040.41;68020;1275;1016547;-68
2024/02/06 04:50:54;;;;;;;21.50;4.50;;;;;;;14.16;58.28;98025.19;67995;1275;1016478;-68
2024/02/06 04:53:57;;;;;;;21.50;5.50;;;;;;;14.18;58.16;98026.60;67943;1274;1016381;-68
2024/02/06 04:56:59;;;;;;;22.00;4.80;;;;;;;14.19;58.00;98023.21;67990;1274;1016385;-69
2024/02/06 05:00:03;;;;;;;22.60;4.80;;;;;;;14.12;57.95;98026.42;68054;1275;1016315;-69
2024/02/06 05:03:06;;;;;;;20.60;5.60;;;;;;;14.23;57.56;98016.89;67990;1275;1016263;-69
2024/02/06 05:06:11;;;;;;;17.70;4.30;;;;;;;14.11;57.48;98029.52;68043;1274;1016106;-69
2024/02/06 05:09:14;;;;;;;21.00;4.90;;;;;;;14.01;57.28;98026.52;68063;1275;1016288;-69
2024/02/06 05:12:16;;;;;;;20.10;4.60;;;;;;;13.85;57.98;98031.75;68067;1275;1016855;-68
2024/02/06 05:15:19;;;;;;;22.20;5.50;;;;;;;13.86;57.83;98027.63;67992;1275;1016493;-69
2024/02/06 05:18:21;;;;;;;22.20;4.70;;;;;;;14.06;57.38;98018.69;68021;1275;1016060;-69
2024/02/06 05:21:23;;;;;;;18.70;4.30;;;;;;;13.95;57.26;98022.13;68027;1275;1016074;-69
2024/02/06 05:24:26;;;;;;;21.70;4.40;;;;;;;13.88;57.44;98024.45;68035;1275;1016483;-69
2024/02/06 05:27:28;;;;;;;21.80;5.50;;;;;;;14.00;56.78;98024.11;67985;1275;1016485;-69
2024/02/06 05:30:32;;;;;;;21.60;4.90;;;;;;;14.12;56.77;98029.46;67992;1275;1016388;-69
2024/02/06 05:33:35;;;;;;;22.60;4.80;;;;;;;14.26;56.31;98025.23;67990;1275;1016446;-69
2024/02/06 05:36:37;;;;;;;21.20;5.30;;;;;;;14.00;57.85;98028.16;68006;1275;1016425;-69
2024/02/06 05:39:40;;;;;;;22.10;5.10;;;;;;;14.01;58.24;98037.40;68029;1275;1016232;-69
2024/02/06 05:42:42;;;;;;;23.40;5.20;;;;;;;13.61;60.83;98036.68;68057;1275;1016474;-69
2024/02/06 05:45:45;;;;;;;20.20;5.40;;;;;;;13.65;61.56;98042.30;65852;1275;5370207;-67
2024/02/06 05:48:48;;;;;;;21.50;5.40;;;;;;;13.60;62.24;98024.41;68044;1275;1016325;-69
2024/02/06 05:51:50;;;;;;;29.20;6.30;;;;;;;13.41;64.21;98032.55;68035;1275;1016498;-69
2024/02/06 05:54:53;;;;;;;23.70;5.90;;;;;;;13.38;64.54;98029.44;68010;1275;1016419;-69
2024/02/06 05:57:55;;;;;;;25.60;5.40;;;;;;;13.29;65.55;98025.64;67991;1275;1016396;-68
2024/02/06 06:00:58;;;;;;;20.60;5.50;;;;;;;13.21;66.57;98025.05;68079;1275;1016614;-69
2024/02/06 06:04:00;;;;;;;27.00;5.90;;;;;;;13.17;67.08;98026.25;68032;1275;1016388;-69
2024/02/06 06:07:03;;;;;;;;;;;;;;;13.09;68.07;98025.17;68030;1275;1015923;-69
2024/02/06 06:10:05;;;;;;;25.70;5.70;;;;;;;13.13;68.30;98023.63;67995;1275;1016368;-69
2024/02/06 06:13:08;;;;;;;23.00;5.60;;;;;;;13.23;67.96;98016.64;68027;1275;1016260;-69
2024/02/06 06:16:10;;;;;;;22.60;5.50;;;;;;;13.17;68.57;98020.30;68039;1275;1016242;-69
2024/02/06 06:19:13;;;;;;;26.70;5.90;;;;;;;13.19;68.25;98013.69;68015;1275;1016154;-68
2024/02/06 06:22:15;;;;;;;24.50;6.50;;;;;;;13.14;68.40;98011.27;67968;1275;1016318;-69
2024/02/06 06:25:18;;;;;;;26.20;6.20;;;;;;;13.18;67.98;98012.37;68020;1275;1016610;-69
2024/02/06 06:28:20;;;;;;;23.10;5.90;;;;;;;13.08;67.98;98015.66;68041;1275;1016466;-69
2024/02/06 06:31:23;;;;;;;27.60;6.40;;;;;;;13.00;68.59;98019.81;68000;1275;1016477;-69
2024/02/06 06:34:25;;;;;;;21.60;5.90;;;;;;;13.07;67.99;98009.04;68000;1275;1016440;-69
2024/02/06 06:37:28;;;;;;;24.80;5.40;;;;;;;13.00;67.86;98019.98;68028;1275;1016902;-69
2024/02/06 06:40:30;;;;;;;20.20;5.30;;;;;;;13.03;67.35;98017.11;68023;1275;1016462;-69
2024/02/06 06:43:33;;;;;;;26.20;6.30;;;;;;;13.02;66.99;98032.98;68035;1275;1016397;-70
2024/02/06 06:46:35;;;;;;;26.90;6.90;;;;;;;13.11;66.34;98026.80;68009;1275;1017082;-69
2024/02/06 06:49:38;;;;;;;26.10;5.90;;;;;;;13.25;65.63;98033.56;68010;1275;1016453;-69
2024/02/06 06:52:41;;;;;;;26.60;6.40;;;;;;;13.28;64.53;98036.98;68024;1275;1016103;-69
2024/02/06 06:55:43;;;;;;;23.30;5.60;;;;;;;13.29;64.60;98028.77;68006;1275;1016599;-69
2024/02/06 06:58:45;;;;;;;27.60;5.60;;;;;;;13.30;64.14;98033.09;67985;1275;1016377;-69
2024/02/06 07:01:48;;;;;;;24.20;6.00;;;;;;;13.36;63.69;98027.03;68068;1275;1016057;-69
2024/02/06 07:04:50;;;;;;;24.50;6.80;;;;;;;13.41;63.60;98024.27;68038;1275;1016505;-69
2024/02/06 07:07:53;;;;;;;27.60;6.40;;;;;;;13.49;62.94;98024.52;67996;1275;1016603;-69
2024/02/06 07:10:56;;;;;;;27.50;6.30;;;;;;;13.43;62.61;98017.47;68014;1275;1018738;-70
2024/02/06 07:13:59;;;;;;;28.20;6.20;;;;;;;13.42;62.54;98025.58;68017;1275;1016036;-69
2024/02/06 07:17:01;;;;;;;27.90;7.60;;;;;;;13.49;62.25;98021.54;68030;1274;1016432;-70
2024/02/06 07:20:04;;;;;;;27.60;6.50;;;;;;;13.50;62.27;98029.49;68027;1275;1016283;-70
2024/02/06 07:23:08;;;;;;;23.00;5.90;;;;;;;13.42;61.43;98030.00;68005;1274;1016090;-69
2024/02/06 07:26:11;;;;;;;26.20;5.90;;;;;;;13.42;61.21;98025.80;68051;1275;1016679;-68
2024/02/06 07:29:13;;;;;;;21.90;5.50;;;;;;;13.39;60.70;98023.05;68018;1275;1016459;-68
2024/02/06 07:32:16;;;;;;;26.90;5.80;;;;;;;13.56;59.85;98024.64;67997;1275;1017807;-69
2024/02/06 07:35:18;;;;;;;22.90;5.80;;;;;;;13.51;59.70;98022.74;68074;1275;1016504;-69
2024/02/06 07:38:21;;;;;;;24.80;6.30;;;;;;;13.53;59.19;98025.02;68005;1274;1016421;-69
2024/02/06 07:41:23;;;;;;;25.10;5.70;;;;;;;13.59;59.30;98024.36;67994;1275;1016265;-70
2024/02/06 07:44:26;;;;;;;24.60;6.10;;;;;;;13.57;58.51;98022.97;67994;1274;1016223;-68
2024/02/06 07:47:29;;;;;;;24.60;5.70;;;;;;;13.67;58.46;98026.33;67976;1274;1016270;-69
2024/02/06 07:50:31;;;;;;;23.00;5.70;;;;;;;13.63;58.06;98023.10;68057;1274;1016296;-69
2024/02/06 07:53:34;;;;;;;21.00;5.50;;;;;;;13.60;58.60;98016.73;68029;1274;1016697;-69
2024/02/06 07:56:36;;;;;;;23.70;5.90;;;;;;;13.34;58.59;98027.15;68033;1274;1016803;-67
2024/02/06 07:59:38;;;;;;;20.40;4.90;;;;;;;13.62;58.18;98026.59;68033;1274;1017028;-69
2024/02/06 08:02:41;;;;;;;23.20;5.60;;;;;;;13.67;56.60;98024.90;68058;1274;1016330;-69
2024/02/06 08:05:44;;;;;;;23.30;5.00;;;;;;;13.77;56.49;98030.67;68029;1274;1018138;-69
2024/02/06 08:08:47;;;;;;;26.10;5.40;;;;;;;13.62;56.35;98038.63;67998;1274;1016366;-68
2024/02/06 08:11:49;;;;;;;26.80;6.30;;;;;;;13.71;56.48;98036.36;68040;1274;1016725;-69
2024/02/06 08:14:52;;;;;;;30.00;5.90;;;;;;;13.87;56.02;98037.77;68084;1274;1016413;-69
2024/02/06 08:17:54;;;;;;;22.60;5.10;;;;;;;13.88;55.23;98049.77;68004;1274;1016357;-69
2024/02/06 08:20:57;;;;;;;24.50;5.40;;;;;;;13.82;55.35;98056.30;67977;1274;1016409;-68
2024/02/06 08:23:59;;;;;;;23.30;5.60;;;;;;;13.81;55.12;98051.63;68008;1274;1016481;-69
2024/02/06 08:27:02;;;;;;;18.80;4.10;;;;;;;13.76;54.77;98086.32;68047;1275;1016024;-70
2024/02/06 08:30:05;;;;;;;21.50;5.90;;;;;;;13.63;55.25;98064.09;68037;1275;1016410;-68
2024/02/06 08:33:07;;;;;;;22.20;4.90;;;;;;;13.69;55.91;98057.73;68067;1275;1015965;-67
2024/02/06 08:36:10;;;;;;;15.40;3.70;;;;;;;13.75;55.29;98051.09;68059;1275;1016520;-66
2024/02/06 08:39:12;;;;;;;18.60;4.30;;;;;;;13.60;55.44;98061.50;68009;1274;1016326;-69
2024/02/06 08:42:15;;;;;;;17.60;3.90;;;;;;;13.62;55.70;98058.35;68007;1274;1016170;-69
2024/02/06 08:45:17;;;;;;;19.40;4.20;;;;;;;13.74;55.78;98064.20;68083;1274;1016405;-64
2024/02/06 08:48:20;;;;;;;20.00;4.80;;;;;;;13.78;56.03;98057.65;68039;1274;1016275;-70
2024/02/06 08:51:22;;;;;;;18.50;4.40;;;;;;;13.92;56.01;98057.23;67987;1274;1016431;-68
2024/02/06 08:54:25;;;;;;;19.20;4.50;;;;;;;13.97;55.80;98059.04;67969;1274;1016089;-69
2024/02/06 08:57:27;;;;;;;20.90;4.90;;;;;;;13.97;56.60;98052.91;68054;1275;1017155;-69
2024/02/06 09:00:31;;;;;;;;;;;;;;;14.08;55.57;98061.57;68043;1274;1016051;-70
2024/02/06 09:03:33;;;;;;;;;;;;;;;14.25;54.64;98058.20;68036;1274;1016139;-69
2024/02/06 09:06:36;;;;;;;19.00;4.60;;;;;;;14.39;54.69;98056.61;68090;1274;1015742;-69
2024/02/06 09:09:39;;;;;;;21.30;4.50;;;;;;;14.53;54.23;98060.48;68075;1275;1016253;-69
2024/02/06 09:12:41;;;;;;;20.00;4.50;;;;;;;14.81;53.23;98052.21;68025;1274;1016444;-69
2024/02/06 09:15:44;;;;;;;17.70;4.10;;;;;;;14.86;52.91;98045.59;68052;1275;1016491;-69
2024/02/06 09:18:46;;;;;;;23.80;4.30;;;;;;;14.84;53.25;98049.11;68034;1275;1018391;-69
2024/02/06 09:21:49;;;;;;;18.20;4.30;;;;;;;14.90;52.03;98053.48;68008;1275;1018525;-67
2024/02/06 09:24:51;;;;;;;18.20;4.00;;;;;;;14.58;52.73;98070.36;68010;1274;1016492;-69
2024/02/06 09:27:54;;;;;;;25.80;5.20;;;;;;;14.59;52.97;98059.25;68063;1275;1016474;-69
2024/02/06 09:30:56;;;;;;;21.00;4.80;;;;;;;14.67;52.96;98053.95;68014;1275;1016433;-67
2024/02/06 09:33:59;;;;;;;16.60;3.90;;;;;;;14.55;53.13;98053.45;67974;1275;1016118;-69
2024/02/06 09:37:01;;;;;;;20.10;5.20;;;;;;;14.50;52.82;98055.46;68035;1274;1016205;-68
2024/02/06 09:40:04;;;;;;;21.50;4.60;;;;;;;14.39;52.66;98048.52;68052;1275;1016109;-69
2024/02/06 09:43:07;;;;;;;18.60;4.50;;;;;;;14.29;52.56;98068.37;68040;1275;1016468;-68
2024/02/06 09:46:09;;;;;;;19.90;4.10;;;;;;;14.41;53.16;98044.82;68042;1275;1016044;-69
2024/02/06 09:49:12;;;;;;;14.40;4.50;;;;;;;14.40;52.60;98054.17;67991;1275;1016948;-67
2024/02/06 09:52:15;;;;;;;21.70;4.40;;;;;;;14.29;52.37;98065.26;67970;1275;1016862;-69
2024/02/06 09:55:17;;;;;;;14.60;3.60;;;;;;;14.28;53.17;98054.27;67995;1275;1016303;-69
2024/02/06 09:58:19;;;;;;;18.90;4.20;;;;;;;14.32;52.69;98049.64;68037;1274;1016312;-69
2024/02/06 10:01:22;;;;;;;20.50;4.10;;;;;;;14.18;53.23;98068.27;68049;1275;1016405;-69
2024/02/06 10:04:25;;;;;;;24.30;5.50;;;;;;;14.29;52.84;98068.07;67911;1275;1016435;-69
2024/02/06 10:07:27;;;;;;;22.50;4.40;;;;;;;14.40;52.93;98054.90;68018;1275;1016380;-67
2024/02/06 10:10:30;;;;;;;17.00;3.90;;;;;;;14.59;52.46;98057.15;68019;1275;1016417;-68
2024/02/06 10:13:32;;;;;;;19.80;4.10;;;;;;;14.53;52.39;98068.02;68065;1275;1016470;-69
2024/02/06 10:16:35;;;;;;;17.40;3.80;;;;;;;14.45;52.21;98057.65;68045;1275;1016778;-69
2024/02/06 10:19:38;;;;;;;;;;;;;;;14.36;52.03;98056.30;67992;1275;1016287;-66
2024/02/06 10:22:41;;;;;;;18.60;3.80;;;;;;;14.24;52.95;98058.95;68006;1274;1016331;-69
2024/02/06 10:25:43;;;;;;;21.10;4.20;;;;;;;14.37;52.55;98059.36;68008;1275;1016464;-69
2024/02/06 10:28:46;;;;;;;19.50;4.10;;;;;;;14.38;52.45;98060.92;68049;1275;1016448;-69
2024/02/06 10:31:51;;;;;;;13.70;3.50;;;;;;;14.69;52.29;98053.79;68017;1275;1016359;-69
2024/02/06 10:34:53;;;;;;;15.70;3.80;;;;;;;14.78;52.00;98048.70;67987;1275;1015887;-68
2024/02/06 10:37:56;;;;;;;14.30;3.40;;;;;;;14.50;52.57;98062.11;67982;1275;1016539;-68
2024/02/06 10:40:59;;;;;;;16.90;4.00;;;;;;;14.47;52.80;98052.88;68015;1275;1016251;-69
2024/02/06 10:44:01;;;;;;;15.20;3.30;;;;;;;14.59;53.03;98051.13;68039;1274;1016402;-68
2024/02/06 10:47:04;;;;;;;15.00;3.50;;;;;;;14.26;53.63;98050.32;67990;1275;1017540;-69
2024/02/06 10:50:07;;;;;;;14.00;3.60;;;;;;;14.33;53.98;98037.73;60637;1275;2003800;-70
2024/02/06 10:53:11;;;;;;;14.10;3.00;;;;;;;14.30;53.77;98045.80;50752;1274;2016002;-70
2024/02/06 10:56:13;;;;;;;15.90;3.40;;;;;;;14.32;54.13;98043.66;52859;1274;2015603;-70
2024/02/06 10:59:16;;;;;;;16.10;3.10;;;;;;;14.31;53.22;98043.59;48473;1274;2019976;-69
2024/02/06 11:02:19;;;;;;;14.60;3.20;;;;;;;14.37;53.53;98012.42;50627;1274;2016726;-69
2024/02/06 11:05:21;;;;;;;16.30;3.70;;;;;;;14.54;52.72;98020.96;49964;1274;2016031;-70
2024/02/06 11:08:24;;;;;;;;;;;;;;;14.51;52.06;98014.23;50012;1274;2016458;-70
2024/02/06 11:11:28;;;;;;;16.80;3.60;;;;;;;14.62;51.76;98024.63;52287;1274;2016337;-69
2024/02/06 11:14:30;;;;;;;13.50;3.00;;;;;;;14.71;51.42;98042.73;49859;1274;2016892;-70
2024/02/06 11:17:33;;;;;;;17.10;4.30;;;;;;;14.90;51.72;98012.46;54377;1252;2016416;-69
2024/02/06 11:20:36;;;;;;;15.30;3.20;;;;;;;15.03;51.17;98021.29;50003;1274;2015807;-69
2024/02/06 11:23:39;;;;;;;15.10;3.40;;;;;;;15.00;49.34;98015.39;48494;1274;2016028;-69
2024/02/06 11:26:42;;;;;;;18.20;3.90;;;;;;;15.06;50.00;98004.13;52872;1274;2015545;-64
2024/02/06 11:29:44;;;;;;;10.80;2.70;;;;;;;14.96;49.28;98028.66;51366;1274;2016360;-67
2024/02/06 11:32:49;;;;;;;19.90;3.90;;;;;;;14.93;49.60;98014.65;51491;1274;2015635;-66
2024/02/06 11:35:51;;;;;;;;;;;;;;;14.81;49.75;98031.61;49828;1274;2016336;-69
2024/02/06 11:38:54;;;;;;;16.20;3.60;;;;;;;14.81;50.22;98018.59;51367;1274;2016441;-70
2024/02/06 11:41:56;;;;;;;9.80;2.80;;;;;;;14.92;49.93;97988.30;51332;1274;2016396;-70
2024/02/06 11:44:59;;;;;;;17.50;2.90;;;;;;;14.84;49.27;98005.27;50029;1274;2016670;-70
2024/02/06 11:48:01;;;;;;;8.40;2.30;;;;;;;14.94;49.75;97998.00;50646;1274;2015450;-69
2024/02/06 11:51:04;;;;;;;14.10;2.80;;;;;;;14.91;49.26;98011.86;50716;1274;2016296;-70
2024/02/06 11:54:07;;;;;;;13.50;2.60;;;;;;;14.83;49.65;97999.90;52121;1274;2015482;-69
2024/02/06 11:57:10;;;;;;;10.30;2.20;;;;;;;14.80;49.55;98004.86;50791;1274;2015920;-69
2024/02/06 12:00:13;;;;;;;13.60;3.20;;;;;;;14.88;49.33;98001.87;53034;1275;2017198;-69
2024/02/06 12:03:15;;;;;;;14.60;2.70;;;;;;;14.99;49.71;97990.83;66535;1274;2015753;-69
2024/02/06 12:06:18;;;;;;;15.30;3.70;;;;;;;15.01;49.49;97983.67;68018;1274;1016478;-67
2024/02/06 12:09:21;;;;;;;14.20;3.20;;;;;;;14.96;49.49;97985.69;67966;1275;1016482;-69
2024/02/06 12:12:23;;;;;;;19.00;4.30;;;;;;;14.93;49.67;97984.75;68017;1274;1016658;-69
2024/02/06 12:15:25;;;;;;;18.10;4.10;;;;;;;15.00;49.72;97988.62;68044;1275;1016875;-69
2024/02/06 12:18:28;;;;;;;22.10;5.10;;;;;;;14.90;49.83;97980.73;68002;1274;1015924;-67
2024/02/06 12:21:30;;;;;;;15.70;3.80;;;;;;;14.75;50.15;97983.17;67974;1274;1017604;-69
2024/02/06 12:24:34;;;;;;;18.50;3.60;;;;;;;14.80;50.04;97975.19;68039;1274;1016343;-70
2024/02/06 12:27:38;;;;;;;18.40;4.00;;;;;;;14.77;50.31;97982.11;68066;1275;1016775;-69
2024/02/06 12:30:41;;;;;;;13.10;3.20;;;;;;;14.55;50.89;97974.81;68016;1275;1016395;-68
2024/02/06 12:33:44;;;;;;;19.50;4.30;;;;;;;14.31;51.79;97989.02;67922;1275;1015964;-69
2024/02/06 12:36:47;;;;;;;18.40;3.70;;;;;;;14.40;51.84;97984.19;67905;1274;1016286;-70
2024/02/06 12:39:50;;;;;;;19.00;4.60;;;;;;;14.32;52.35;97978.64;67882;1275;1016402;-69
2024/02/06 12:42:53;;;;;;;20.90;4.30;;;;;;;14.47;51.91;97972.02;67864;1274;1016285;-70
2024/02/06 12:45:55;;;;;;;;;;;;;;;14.45;51.30;97977.06;67880;1275;1016450;-69
2024/02/06 12:48:58;;;;;;;20.70;5.00;;;;;;;14.36;51.82;97966.95;67955;1274;1016403;-70
2024/02/06 12:52:01;;;;;;;16.90;3.80;;;;;;;14.35;51.73;97964.95;67941;1274;1016405;-69
2024/02/06 12:55:04;;;;;;;21.20;5.10;;;;;;;14.42;51.44;97947.63;67998;1274;1016157;-66
2024/02/06 12:58:06;;;;;;;19.60;4.20;;;;;;;14.41;51.13;97949.83;68057;1274;1016509;-69
2024/02/06 13:01:08;;;;;;;17.80;4.40;;;;;;;14.39;51.13;97947.05;68013;1275;1016374;-69
2024/02/06 13:04:11;;;;;;;18.50;4.20;;;;;;;14.42;50.98;97942.19;68011;1275;1016391;-65
2024/02/06 13:07:13;;;;;;;14.00;3.60;;;;;;;14.28;50.90;97949.42;68049;1274;1018689;-69
2024/02/06 13:10:18;;;;;;;;;;;;;;;14.14;51.17;97953.78;68009;1275;1016825;-70
2024/02/06 13:13:21;;;;;;;19.80;4.00;;;;;;;14.14;51.08;97950.27;68051;1275;1016501;-69
2024/02/06 13:16:23;;;;;;;18.60;4.70;;;;;;;14.15;51.34;97936.21;67982;1275;1016403;-70
2024/02/06 13:19:28;;;;;;;19.10;4.00;;;;;;;14.23;51.24;97938.27;68083;1275;1016358;-69
2024/02/06 13:22:31;;;;;;;25.00;4.70;;;;;;;14.27;51.13;97937.23;68037;1275;1016252;-69
2024/02/06 13:25:34;;;;;;;18.80;4.20;;;;;;;14.33;50.68;97940.16;68055;1275;1016443;-69
2024/02/06 13:28:36;;;;;;;22.10;4.50;;;;;;;14.31;50.62;97938.91;68050;1275;1016320;-70
2024/02/06 13:31:39;;;;;;;17.50;3.90;;;;;;;14.25;50.29;97924.33;67993;1275;1015964;-68
2024/02/06 13:34:41;;;;;;;20.70;5.40;;;;;;;14.37;50.24;97931.72;67992;1275;1016440;-69
2024/02/06 13:37:44;;;;;;;17.80;4.20;;;;;;;14.36;50.27;97941.45;68040;1274;1016734;-69
2024/02/06 13:40:46;;;;;;;13.60;3.50;;;;;;;14.34;50.36;97934.69;68031;1275;1016491;-69
2024/02/06 13:43:49;;;;;;;20.30;4.60;;;;;;;14.50;49.27;97927.55;68004;1274;1016413;-69
2024/02/06 13:46:51;;;;;;;19.10;3.60;;;;;;;14.37;49.66;97921.20;68010;1275;1016499;-68
2024/02/06 13:49:54;;;;;;;19.10;4.30;;;;;;;14.25;49.21;97935.47;68046;1275;1018870;-69
2024/02/06 14:00:26;;;;;;;22.70;5.30;;;;;;;14.31;49.04;97924.02;67948;1275;1016352;-70